Time;durP1;ratioP1;P1;durP2;ratioP2;P2;SDS_P1;SDS_P2;PMS_P1;PMS_P2;Temp;Humidity;BMP_temperature;BMP_pressure;BME280_temperature;BME280_humidity;BME280_pressure;Samples;Min_cycle;Max_cycle;Signal;HPM_P1;HPM_P2
2022/01/28 00:01:05;;;;;;;;;0.00;0.00;;;;;5.77;86.78;100893.00;5120934;27;8846;-61
2022/01/28 00:03:33;;;;;;;;;0.00;0.00;;;;;5.80;86.70;100904.31;5107377;27;8843;-64
2022/01/28 00:06:01;;;;;;;;;0.00;0.00;;;;;5.81;86.43;100902.53;5109200;27;8836;-63
2022/01/28 00:08:29;;;;;;;;;0.00;0.00;;;;;5.84;86.54;100897.13;5108360;28;8846;-63
2022/01/28 00:10:57;;;;;;;;;0.20;0.00;;;;;5.85;86.65;100896.19;5106589;28;9513;-64
2022/01/28 00:13:30;;;;;;;;;0.00;0.00;;;;;5.86;86.51;100900.53;5122097;27;8875;-60
2022/01/28 00:38:05;;;;;;;;;0.80;0.60;;;;;5.81;85.88;100944.81;5109819;28;8998;-64
2022/01/28 00:40:32;;;;;;;;;0.00;0.00;;;;;5.80;85.98;100957.19;5110047;28;8950;-63
2022/01/28 00:43:00;;;;;;;;;0.00;0.00;;;;;5.77;85.81;100957.25;5109216;27;9018;-62
2022/01/28 00:45:28;;;;;;;;;0.00;0.00;;;;;5.70;85.88;100961.09;5112850;27;8833;-63
2022/01/28 00:47:56;;;;;;;;;0.00;0.00;;;;;5.64;85.92;100977.22;5130468;27;9470;-61
2022/01/28 00:50:23;;;;;;;;;0.00;0.00;;;;;5.60;85.89;100980.03;5107843;27;8850;-64
2022/01/28 00:52:51;;;;;;;;;1.60;0.00;;;;;5.55;86.05;100985.53;5108636;28;8878;-63
2022/01/28 00:55:19;;;;;;;;;0.60;0.20;;;;;5.52;86.07;100988.31;5109736;27;9635;-62
2022/01/28 00:57:47;;;;;;;;;1.00;1.00;;;;;5.48;86.20;100999.91;5126981;27;9648;-65
2022/01/28 01:00:14;;;;;;;;;2.20;1.00;;;;;5.45;85.98;100993.91;5128965;27;8976;-63
2022/01/28 01:02:42;;;;;;;;;0.00;0.00;;;;;5.43;86.24;101001.91;5126162;27;9623;-63
2022/01/28 01:05:11;;;;;;;;;0.00;0.00;;;;;5.40;86.36;101004.66;5127028;27;8913;-62
2022/01/28 01:07:38;;;;;;;;;1.00;1.00;;;;;5.39;86.13;101000.31;5127889;27;8988;-62
2022/01/28 01:10:06;;;;;;;;;0.00;0.00;;;;;5.35;86.42;100998.72;5125625;27;8964;-60
2022/01/28 01:12:38;;;;;;;;;0.00;0.00;;;;;5.29;86.41;101019.22;5124849;27;9684;-59
2022/01/28 01:15:06;;;;;;;;;0.00;0.00;;;;;5.24;86.56;101018.56;5128255;27;8842;-60
2022/01/28 01:17:37;;;;;;;;;1.00;0.00;;;;;5.19;86.05;101031.09;5115250;27;8970;-62
2022/01/28 01:20:22;;;;;;;;;0.00;0.00;;;;;5.12;86.55;101040.19;5107326;27;8851;-61
2022/01/28 01:23:03;;;;;;;;;0.20;0.20;;;;;5.05;86.61;101036.06;5107531;28;8847;-61
2022/01/28 01:25:38;;;;;;;;;2.40;0.80;;;;;4.96;86.99;101026.75;5107733;28;8966;-59
2022/01/28 01:28:05;;;;;;;;;0.00;0.00;;;;;4.84;87.12;101029.84;5106898;28;8876;-62
2022/01/28 01:30:39;;;;;;;;;0.00;0.00;;;;;4.81;86.77;101037.03;5107024;28;8840;-60
2022/01/28 01:33:06;;;;;;;;;0.00;0.00;;;;;4.79;87.72;101036.25;5116113;27;8850;-60
2022/01/28 01:35:35;;;;;;;;;1.00;1.00;;;;;4.80;87.01;101036.16;5127481;27;8844;-60
2022/01/28 01:38:02;;;;;;;;;3.00;1.00;;;;;4.83;87.06;101028.13;5127528;27;8871;-62
2022/01/28 01:40:35;;;;;;;;;0.80;0.80;;;;;4.85;87.14;101035.97;5127766;27;8838;-60
2022/01/28 01:43:10;;;;;;;;;0.00;0.00;;;;;4.88;87.52;101026.16;5122960;28;8906;-62
2022/01/28 01:45:56;;;;;;;;;1.80;0.60;;;;;4.94;87.02;101028.56;5109164;28;8840;-62
2022/01/28 01:54:02;;;;;;;;;2.00;2.00;;;;;5.10;86.84;101023.56;5112973;27;8858;-62
2022/01/28 01:56:30;;;;;;;;;0.00;0.00;;;;;5.12;86.65;101027.84;5115530;28;8836;-63
2022/01/28 01:58:57;;;;;;;;;0.00;0.00;;;;;5.16;86.50;101025.94;5107817;28;8868;-63
2022/01/28 02:01:25;;;;;;;;;0.00;0.00;;;;;5.19;86.57;101013.50;5118802;27;8964;-62
2022/01/28 02:03:53;;;;;;;;;1.00;1.00;;;;;5.21;86.45;101022.19;5126621;27;9494;-62
2022/01/28 02:06:21;;;;;;;;;0.00;0.00;;;;;5.24;86.35;101018.56;5127338;27;8834;-62
2022/01/28 02:08:49;;;;;;;;;0.00;0.00;;;;;5.24;86.59;101021.22;5128902;27;8849;-61
2022/01/28 02:11:16;;;;;;;;;0.00;0.00;;;;;5.26;86.35;101024.66;5128690;27;8842;-61
2022/01/28 02:13:44;;;;;;;;;2.60;0.00;;;;;5.28;86.45;101028.06;5126960;27;8914;-62
2022/01/28 02:16:13;;;;;;;;;0.00;0.00;;;;;5.28;86.19;101022.78;5119610;28;8877;-61
2022/01/28 02:18:41;;;;;;;;;1.00;0.00;;;;;5.27;86.37;101021.06;5108921;28;8843;-60
2022/01/28 02:21:11;;;;;;;;;0.00;0.00;;;;;5.30;86.42;101036.78;5107888;27;8958;-62
2022/01/28 02:23:39;;;;;;;;;0.00;0.00;;;;;5.31;86.25;101025.31;5120276;27;8945;-62
2022/01/28 02:26:12;;;;;;;;;0.00;0.00;;;;;5.33;86.13;101040.16;5128574;27;8981;-62
2022/01/28 02:28:40;;;;;;;;;0.00;0.00;;;;;5.35;86.47;101042.75;5127567;27;8881;-62
2022/01/28 02:31:08;;;;;;;;;0.00;0.00;;;;;5.37;86.63;101048.81;5128978;27;8833;-62
2022/01/28 02:33:36;;;;;;;;;0.60;0.00;;;;;5.37;86.04;101073.47;5113156;28;8820;-60
2022/01/28 02:36:06;;;;;;;;;0.20;0.20;;;;;5.35;86.21;101092.91;5107994;28;8918;-62
2022/01/28 02:38:34;;;;;;;;;0.80;0.80;;;;;5.31;86.10;101094.81;5107652;28;9624;-63
2022/01/28 02:41:04;;;;;;;;;1.00;1.00;;;;;5.30;86.16;101119.50;5117143;27;8964;-62
2022/01/28 02:43:38;;;;;;;;;0.00;0.00;;;;;5.23;86.12;101125.94;5128145;27;8980;-62
2022/01/28 02:46:09;;;;;;;;;0.00;0.00;;;;;5.09;86.30;101111.59;5121763;28;8926;-63
2022/01/28 02:48:39;;;;;;;;;0.00;0.00;;;;;4.90;86.59;101116.69;5108703;28;8840;-63
2022/01/28 02:51:13;;;;;;;;;0.00;0.00;;;;;4.75;86.80;101121.69;5106275;28;8864;-63
2022/01/28 02:53:45;;;;;;;;;0.00;0.00;;;;;4.64;86.72;101119.44;5116079;27;8944;-64
2022/01/28 02:56:19;;;;;;;;;2.60;1.00;;;;;4.59;87.16;101123.16;5132115;27;8849;-63
2022/01/28 02:58:47;;;;;;;;;1.00;1.00;;;;;4.58;87.19;101116.16;5132727;27;8992;-61
2022/01/28 03:01:15;;;;;;;;;0.00;0.00;;;;;4.60;87.32;101124.88;5132393;27;8971;-62
2022/01/28 03:03:43;;;;;;;;;0.00;0.00;;;;;4.62;87.50;101123.03;5118447;27;9635;-59
2022/01/28 03:06:11;;;;;;;;;0.00;0.00;;;;;4.65;87.42;101123.78;5131301;27;8952;-62
2022/01/28 03:08:41;;;;;;;;;0.60;0.60;;;;;4.70;87.36;101134.16;5130494;27;9636;-63
2022/01/28 03:11:31;;;;;;;;;0.00;0.00;;;;;4.73;87.50;101144.63;5130374;27;8948;-63
2022/01/28 03:16:58;;;;;;;;;1.40;0.20;;;;;4.78;87.38;101153.25;5118975;27;8835;-62
2022/01/28 03:19:29;;;;;;;;;0.00;0.00;;;;;4.80;87.07;101154.03;5110864;28;8831;-62
2022/01/28 03:22:03;;;;;;;;;0.80;0.80;;;;;4.81;87.36;101153.13;5110573;27;8850;-62
2022/01/28 03:24:30;;;;;;;;;1.00;1.00;;;;;4.82;87.37;101163.63;5111921;28;8880;-62
2022/01/28 03:27:03;;;;;;;;;0.60;0.60;;;;;4.82;87.28;101168.03;5111762;28;8872;-62
2022/01/28 03:29:31;;;;;;;;;0.80;0.80;;;;;4.81;87.17;101163.66;5114593;27;8850;-61
2022/01/28 03:31:58;;;;;;;;;2.60;1.80;;;;;4.81;87.17;101164.53;5129301;27;8863;-61
2022/01/28 03:34:26;;;;;;;;;1.80;0.60;;;;;4.82;87.15;101173.31;5109595;28;8854;-63
2022/01/28 03:36:56;;;;;;;;;0.00;0.00;;;;;4.84;86.99;101189.94;5109046;27;8940;-60
2022/01/28 03:39:24;;;;;;;;;0.00;0.00;;;;;4.85;87.09;101199.56;5110892;28;8978;-64
2022/01/28 03:41:51;;;;;;;;;0.00;0.00;;;;;4.84;87.21;101197.84;5118621;27;8837;-64
2022/01/28 03:44:19;;;;;;;;;0.40;0.40;;;;;4.66;86.59;101198.53;5129229;27;8845;-63
2022/01/28 03:46:47;;;;;;;;;0.00;0.00;;;;;4.34;86.42;101196.16;5116264;27;8840;-60
2022/01/28 03:49:15;;;;;;;;;0.00;0.00;;;;;4.02;86.77;101183.16;5109302;28;8828;-64
2022/01/28 03:51:42;;;;;;;;;0.00;0.00;;;;;3.82;87.51;101210.16;5110231;27;9006;-62
2022/01/28 03:54:10;;;;;;;;;0.00;0.00;;;;;3.71;87.92;101221.97;5110048;28;8840;-63
2022/01/28 03:56:38;;;;;;;;;0.80;0.00;;;;;3.63;88.03;101225.75;5110993;27;8850;-62
2022/01/28 03:59:06;;;;;;;;;0.40;0.00;;;;;3.57;88.58;101226.78;5128956;27;8833;-61
2022/01/28 04:01:37;;;;;;;;;0.00;0.00;;;;;3.54;88.66;101226.88;5130218;27;8838;-61
2022/01/28 04:05:01;;;;;;;;;0.00;0.00;;;;;3.50;88.85;101230.53;5110722;28;8851;-60
2022/01/28 04:12:45;;;;;;;;;0.00;0.00;;;;;3.47;88.70;101246.41;5116477;27;8876;-60
2022/01/28 04:15:34;;;;;;;;;0.60;0.60;;;;;3.50;88.66;101267.41;5127843;27;8825;-61
2022/01/28 04:18:02;;;;;;;;;0.00;0.00;;;;;3.52;88.64;101252.41;5109569;28;8835;-62
2022/01/28 04:20:31;;;;;;;;;0.80;0.20;;;;;3.55;89.00;101256.72;5109885;28;8836;-63
2022/01/28 04:22:58;;;;;;;;;3.00;1.80;;;;;3.57;88.89;101255.75;5110603;27;8824;-61
2022/01/28 04:25:26;;;;;;;;;3.00;3.00;;;;;3.60;88.96;101253.03;5110307;27;8909;-61
2022/01/28 04:27:54;;;;;;;;;0.00;0.00;;;;;3.64;88.79;101259.91;5109866;28;8888;-61
2022/01/28 04:30:21;;;;;;;;;2.20;2.20;;;;;3.68;88.91;101282.63;5121064;27;8825;-62
2022/01/28 04:32:51;;;;;;;;;2.60;2.60;;;;;3.72;88.58;101283.41;5129414;27;8829;-62
2022/01/28 04:35:19;;;;;;;;;0.00;0.00;;;;;3.73;88.46;101289.47;5129972;27;8823;-60
2022/01/28 04:37:57;;;;;;;;;0.20;0.20;;;;;3.73;88.98;101280.75;5128829;27;8917;-63
2022/01/28 04:40:28;;;;;;;;;1.00;1.00;;;;;3.72;88.47;101297.41;5129045;27;8852;-61
2022/01/28 04:43:05;;;;;;;;;0.00;0.00;;;;;3.74;88.41;101287.72;5122040;27;8947;-60
2022/01/28 04:45:40;;;;;;;;;1.00;1.00;;;;;3.77;88.77;101289.41;5130420;27;8833;-61
2022/01/28 04:48:17;;;;;;;;;0.80;0.80;;;;;3.82;88.53;101280.44;5128913;27;8837;-62
2022/01/28 04:50:56;;;;;;;;;0.00;0.00;;;;;3.87;88.65;101278.50;5123404;27;8836;-62
2022/01/28 04:53:40;;;;;;;;;0.20;0.20;;;;;3.95;88.43;101281.81;5122934;27;8849;-62
2022/01/28 04:56:32;;;;;;;;;0.00;0.00;;;;;4.00;88.52;101282.50;5129908;27;8856;-62
2022/01/28 04:59:21;;;;;;;;;1.00;1.00;;;;;4.06;88.13;101290.22;5129738;27;8842;-62
2022/01/28 05:02:15;;;;;;;;;1.00;1.00;;;;;4.11;87.98;101296.22;5115119;27;8844;-61
2022/01/28 05:05:14;;;;;;;;;1.00;1.00;;;;;4.16;87.98;101291.63;5109185;28;8855;-61
2022/01/28 05:07:58;;;;;;;;;1.00;0.00;;;;;4.21;88.17;101287.09;5108186;28;8870;-62
2022/01/28 05:16:27;;;;;;;;;0.80;0.80;;;;;4.31;88.05;101281.47;5109527;28;8882;-63
2022/01/28 05:25:01;;;;;;;;;0.00;0.00;;;;;4.41;87.45;101287.31;5067255;28;8861;-61
2022/01/28 05:27:28;;;;;;;;;0.00;0.00;;;;;4.40;87.64;101290.88;5107767;28;8843;-63
2022/01/28 05:29:56;;;;;;;;;0.00;0.00;;;;;4.39;87.60;101294.38;5107700;28;8863;-62
2022/01/28 05:32:24;;;;;;;;;0.00;0.00;;;;;4.38;87.48;101312.00;5127524;27;8856;-62
2022/01/28 05:34:52;;;;;;;;;0.00;0.00;;;;;4.38;87.65;101319.91;5127426;27;8830;-61
2022/01/28 05:37:20;;;;;;;;;1.00;0.00;;;;;4.37;87.18;101312.03;5129296;27;8853;-63
2022/01/28 05:39:47;;;;;;;;;3.00;1.00;;;;;4.36;87.84;101299.78;5129414;27;8849;-60
2022/01/28 05:42:15;;;;;;;;;0.00;0.00;;;;;4.34;87.63;101301.59;5123156;28;8836;-62
2022/01/28 05:44:43;;;;;;;;;0.00;0.00;;;;;4.33;87.67;101311.28;5108847;28;8848;-62
2022/01/28 05:47:14;;;;;;;;;1.00;1.00;;;;;4.34;87.82;101317.44;5123449;27;8922;-62
2022/01/28 05:49:43;;;;;;;;;0.00;0.00;;;;;4.34;87.87;101322.69;5128450;27;9623;-65
2022/01/28 05:52:11;;;;;;;;;0.00;0.00;;;;;4.35;87.81;101325.25;5127073;27;8940;-63
2022/01/28 05:54:39;;;;;;;;;0.00;0.00;;;;;4.36;87.87;101316.47;5128469;27;8834;-60
2022/01/28 05:57:07;;;;;;;;;1.40;0.80;;;;;4.39;87.92;101324.28;5128313;27;8976;-62
2022/01/28 05:59:34;;;;;;;;;0.80;0.80;;;;;4.42;87.97;101334.69;5128677;27;8875;-60
2022/01/28 06:02:02;;;;;;;;;0.60;0.60;;;;;4.44;87.67;101345.22;5113695;27;8976;-61
2022/01/28 06:04:30;;;;;;;;;2.20;2.20;;;;;4.46;87.54;101346.88;5105813;28;9513;-62
2022/01/28 06:06:58;;;;;;;;;2.20;0.00;;;;;4.47;87.54;101358.28;5119210;27;8849;-62
2022/01/28 06:09:25;;;;;;;;;0.20;0.20;;;;;4.49;87.82;101382.84;5126005;27;8967;-63
2022/01/28 06:11:53;;;;;;;;;1.00;0.00;;;;;4.51;88.14;101388.94;5127102;27;8968;-63
2022/01/28 06:14:21;;;;;;;;;1.00;1.00;;;;;4.53;87.42;101397.66;5124526;27;8984;-62
2022/01/28 06:16:49;;;;;;;;;0.00;0.00;;;;;4.52;87.67;101398.56;5121462;27;8853;-61
2022/01/28 06:19:17;;;;;;;;;0.40;0.40;;;;;4.49;87.51;101390.75;5122618;27;9502;-62
2022/01/28 06:21:45;;;;;;;;;0.40;0.00;;;;;4.47;87.59;101393.44;5121275;27;8907;-61
2022/01/28 06:24:13;;;;;;;;;1.00;1.00;;;;;4.46;88.00;101402.28;5118331;27;8853;-60
2022/01/28 06:26:41;;;;;;;;;0.00;0.00;;;;;4.44;87.85;101404.09;5120861;27;8945;-60
2022/01/28 06:29:10;;;;;;;;;0.40;0.40;;;;;4.42;87.71;101399.78;5125890;27;9542;-62
2022/01/28 06:31:38;;;;;;;;;0.40;0.00;;;;;4.40;87.92;101397.19;5122342;27;8850;-60
2022/01/28 06:34:06;;;;;;;;;0.00;0.00;;;;;4.41;87.97;101404.19;5120265;27;9150;-60
2022/01/28 06:36:35;;;;;;;;;0.00;0.00;;;;;4.42;87.59;101400.63;5121658;27;8830;-61
2022/01/28 06:39:02;;;;;;;;;0.40;0.20;;;;;4.45;87.67;101402.31;5120115;27;8956;-62
2022/01/28 06:41:31;;;;;;;;;0.60;0.60;;;;;4.45;87.80;101400.53;5119321;27;9312;-63
2022/01/28 06:43:59;;;;;;;;;0.20;0.20;;;;;4.45;87.25;101408.47;5121380;27;8849;-61
2022/01/28 06:46:27;;;;;;;;;1.00;0.80;;;;;4.47;87.48;101405.75;5122603;27;8853;-62
2022/01/28 06:48:54;;;;;;;;;0.00;0.00;;;;;4.48;87.94;101410.13;5120860;27;8860;-62
2022/01/28 06:51:22;;;;;;;;;0.80;0.80;;;;;4.48;88.07;101407.50;5122295;27;8860;-61
2022/01/28 06:53:50;;;;;;;;;0.00;0.00;;;;;4.48;87.57;101418.91;5124395;27;8842;-63
2022/01/28 06:56:18;;;;;;;;;0.00;0.00;;;;;4.48;87.83;101412.78;5122404;27;8944;-61
2022/01/28 06:58:45;;;;;;;;;0.00;0.00;;;;;4.48;87.52;101418.06;5120266;27;8922;-61
2022/01/28 07:01:13;;;;;;;;;0.20;0.00;;;;;4.47;87.79;101430.38;5121805;27;8833;-61
2022/01/28 07:03:41;;;;;;;;;0.00;0.00;;;;;4.48;87.54;101436.50;5121289;27;8842;-62
2022/01/28 07:06:09;;;;;;;;;0.00;0.00;;;;;4.48;87.97;101432.09;5119981;27;8861;-61
2022/01/28 07:08:38;;;;;;;;;1.00;1.00;;;;;4.49;87.80;101435.59;5120594;27;8964;-63
2022/01/28 07:11:10;;;;;;;;;6.00;4.00;;;;;4.48;87.70;101437.34;5115589;27;9487;-61
2022/01/28 07:13:38;;;;;;;;;0.00;0.00;;;;;4.48;87.91;101453.19;5117965;27;8853;-62
2022/01/28 07:16:06;;;;;;;;;0.00;0.00;;;;;4.49;88.05;101454.91;5117597;27;9869;-64
2022/01/28 07:18:34;;;;;;;;;1.00;1.00;;;;;4.50;87.88;101459.25;5116507;27;9717;-62
2022/01/28 07:21:01;;;;;;;;;0.60;0.00;;;;;4.51;87.44;101457.50;5118001;27;8984;-60
2022/01/28 07:23:30;;;;;;;;;0.20;0.00;;;;;4.53;87.65;101458.31;5118404;27;8867;-62
2022/01/28 07:25:58;;;;;;;;;2.60;2.60;;;;;4.51;87.55;101458.38;5118099;27;9191;-63
2022/01/28 07:28:26;;;;;;;;;2.60;1.80;;;;;4.49;87.86;101454.91;5119672;27;9578;-61
2022/01/28 07:30:54;;;;;;;;;1.00;1.00;;;;;4.45;87.88;101457.69;5117565;27;8849;-62
2022/01/28 07:33:22;;;;;;;;;1.00;1.00;;;;;4.42;88.06;101463.91;5118813;27;8861;-60
2022/01/28 07:35:49;;;;;;;;;5.40;5.20;;;;;4.44;87.93;101458.59;5119769;27;8956;-62
2022/01/28 07:38:17;;;;;;;;;3.40;3.40;;;;;4.45;87.79;101476.16;5120955;27;8841;-62
2022/01/28 07:40:45;;;;;;;;;0.00;0.00;;;;;4.47;87.61;101471.69;5120745;27;8841;-61
2022/01/28 07:43:13;;;;;;;;;2.20;1.40;;;;;4.49;87.60;101472.53;5118645;27;8845;-60
2022/01/28 07:45:40;;;;;;;;;1.00;0.60;;;;;4.51;87.95;101473.31;5119393;27;9313;-61
2022/01/28 07:48:08;;;;;;;;;3.40;1.80;;;;;4.52;87.65;101472.41;5120227;27;9215;-60
2022/01/28 07:50:36;;;;;;;;;2.00;2.00;;;;;4.53;87.41;101476.78;5120222;27;8870;-61
2022/01/28 07:53:05;;;;;;;;;0.60;0.60;;;;;4.52;87.73;101473.28;5117916;27;8929;-62
2022/01/28 07:55:33;;;;;;;;;1.20;0.80;;;;;4.55;87.51;101480.22;5116905;27;9243;-63
2022/01/28 07:58:01;;;;;;;;;1.80;1.80;;;;;4.55;87.60;101481.09;5120612;27;8877;-60
2022/01/28 08:00:29;;;;;;;;;1.60;0.80;;;;;4.55;87.81;101485.50;5119553;27;9182;-61
2022/01/28 08:02:59;;;;;;;;;0.60;0.60;;;;;4.56;87.51;101493.38;5120405;27;9112;-62
2022/01/28 08:05:27;;;;;;;;;0.00;0.00;;;;;4.58;87.42;101495.97;5120247;27;8896;-61
2022/01/28 08:07:54;;;;;;;;;0.80;0.40;;;;;4.60;87.26;101488.88;5116913;27;9228;-63
2022/01/28 08:10:23;;;;;;;;;1.00;1.00;;;;;4.61;87.45;101495.88;5118942;27;8853;-61
2022/01/28 08:12:51;;;;;;;;;1.80;1.80;;;;;4.62;87.29;101492.31;5119463;27;8849;-60
2022/01/28 08:15:18;;;;;;;;;0.00;0.00;;;;;4.63;87.70;101491.44;5117835;27;9574;-63
2022/01/28 08:17:46;;;;;;;;;3.00;3.00;;;;;4.66;87.42;101504.50;5118118;27;8983;-61
2022/01/28 08:20:14;;;;;;;;;0.00;0.00;;;;;4.69;87.26;101507.03;5117564;27;9031;-62
2022/01/28 08:22:42;;;;;;;;;1.00;1.00;;;;;4.73;87.19;101506.06;5110692;27;8846;-63
2022/01/28 08:25:10;;;;;;;;;2.00;0.20;;;;;4.75;87.28;101509.50;5115667;27;9187;-62
2022/01/28 08:27:38;;;;;;;;;0.00;0.00;;;;;4.78;86.85;101515.53;5115041;27;9278;-61
2022/01/28 08:30:05;;;;;;;;;1.00;1.00;;;;;4.83;87.21;101508.34;5114783;27;9117;-61
2022/01/28 08:32:33;;;;;;;;;2.20;2.20;;;;;4.91;87.07;101521.28;5113621;27;8984;-62
2022/01/28 08:35:03;;;;;;;;;1.00;1.00;;;;;4.97;86.68;101521.13;5116744;27;8849;-61
2022/01/28 08:37:30;;;;;;;;;1.00;1.00;;;;;5.02;86.75;101524.47;5109383;27;8849;-63
2022/01/28 08:39:59;;;;;;;;;1.00;1.00;;;;;5.06;86.63;101526.97;5113298;27;9156;-61
2022/01/28 08:42:27;;;;;;;;;3.40;3.20;;;;;5.12;86.57;101531.19;5113545;27;8857;-61
2022/01/28 08:44:55;;;;;;;;;1.00;1.00;;;;;5.15;86.53;101537.22;5114789;27;9091;-63
2022/01/28 08:47:23;;;;;;;;;0.00;0.00;;;;;5.18;86.35;101539.75;5114143;27;9578;-61
2022/01/28 08:49:51;;;;;;;;;1.00;1.00;;;;;5.16;86.51;101543.38;5115351;27;8837;-60
2022/01/28 08:52:19;;;;;;;;;2.60;1.00;;;;;5.12;86.52;101539.97;5115555;27;8849;-63
2022/01/28 08:54:47;;;;;;;;;0.80;0.80;;;;;5.12;86.60;101541.75;5115166;27;8865;-63
2022/01/28 08:57:14;;;;;;;;;0.80;0.80;;;;;5.16;86.71;101548.66;5116062;27;8857;-62
2022/01/28 08:59:44;;;;;;;;;1.00;1.00;;;;;5.19;86.67;101554.72;5115632;27;8833;-60
2022/01/28 09:02:12;;;;;;;;;0.20;0.20;;;;;5.20;86.50;101552.91;5113345;27;8938;-60
2022/01/28 09:04:40;;;;;;;;;1.00;0.00;;;;;5.17;86.69;101550.38;5110953;27;8865;-61
2022/01/28 09:07:08;;;;;;;;;1.40;1.00;;;;;5.14;86.52;101553.09;5115965;27;8853;-61
2022/01/28 09:09:36;;;;;;;;;0.00;0.00;;;;;5.13;86.70;101567.22;5116585;27;8830;-61
2022/01/28 09:12:19;;;;;;;;;0.80;0.80;;;;;5.16;86.75;101564.50;5113734;27;8849;-64
2022/01/28 09:14:47;;;;;;;;;1.00;0.00;;;;;5.22;86.82;101559.00;5117883;27;8853;-62
2022/01/28 09:17:15;;;;;;;;;0.20;0.20;;;;;5.31;86.96;101562.22;5117746;27;9023;-61
2022/01/28 09:19:44;;;;;;;;;0.40;0.40;;;;;5.40;86.04;101572.47;5115724;27;9142;-61
2022/01/28 09:22:12;;;;;;;;;1.00;1.00;;;;;5.49;86.12;101573.97;5114563;27;8850;-61
2022/01/28 09:24:41;;;;;;;;;1.00;1.00;;;;;5.55;86.23;101585.19;5115762;27;8919;-61
2022/01/28 09:27:09;;;;;;;;;1.00;1.00;;;;;5.59;85.81;101578.03;5117122;27;9574;-61
2022/01/28 09:29:37;;;;;;;;;0.20;0.20;;;;;5.65;86.03;101575.19;5116206;27;8874;-61
2022/01/28 09:32:05;;;;;;;;;0.40;0.40;;;;;5.73;85.90;101573.16;5113721;27;8934;-62
2022/01/28 09:34:33;;;;;;;;;1.00;1.00;;;;;5.80;85.96;101574.72;5113717;27;9550;-62
2022/01/28 09:37:01;;;;;;;;;3.00;3.00;;;;;5.89;85.50;101579.66;5112426;27;8841;-61
2022/01/28 09:39:33;;;;;;;;;4.00;4.00;;;;;5.92;85.30;101575.13;5112841;27;9176;-61
2022/01/28 09:42:03;;;;;;;;;1.00;1.00;;;;;5.96;85.02;101582.06;5114786;27;9564;-60
2022/01/28 09:44:31;;;;;;;;;1.00;1.00;;;;;6.03;85.35;101577.41;5111748;27;9079;-60
2022/01/28 09:46:59;;;;;;;;;0.80;0.20;;;;;6.12;85.40;101582.38;5110761;27;8865;-59
2022/01/28 09:49:27;;;;;;;;;1.20;0.00;;;;;6.19;85.24;101584.75;5115465;27;9621;-61
2022/01/28 09:51:54;;;;;;;;;1.00;1.00;;;;;6.26;84.78;101581.00;5114946;27;8860;-60
2022/01/28 09:54:24;;;;;;;;;0.60;0.60;;;;;6.31;84.69;101573.72;5117236;27;8853;-61
2022/01/28 09:56:52;;;;;;;;;0.80;0.80;;;;;6.36;84.40;101571.78;5114295;27;8834;-63
2022/01/28 09:59:19;;;;;;;;;0.60;0.60;;;;;6.44;84.67;101574.19;5117155;27;8871;-61
2022/01/28 10:01:47;;;;;;;;;0.00;0.00;;;;;6.53;83.97;101577.31;5117025;27;8841;-61
2022/01/28 10:04:17;;;;;;;;;1.00;0.00;;;;;6.65;84.33;101581.28;5115583;27;9134;-63
2022/01/28 10:06:45;;;;;;;;;2.20;1.00;;;;;6.76;84.18;101579.13;5114504;27;8865;-60
2022/01/28 10:09:13;;;;;;;;;0.75;0.75;;;;;6.92;83.91;101578.50;5119245;27;9128;-62
2022/01/28 10:11:45;;;;;;;;;0.25;0.25;;;;;7.18;83.81;101590.69;5117193;27;8854;-61
2022/01/28 10:14:15;;;;;;;;;0.00;0.00;;;;;7.50;82.87;101577.03;5118110;27;8875;-61
2022/01/28 10:16:43;;;;;;;;;0.00;0.00;;;;;7.85;82.30;101575.47;5118853;27;8857;-61
2022/01/28 10:19:11;;;;;;;;;0.75;0.00;;;;;8.23;81.74;101577.41;5118466;27;8858;-61
2022/01/28 10:21:39;;;;;;;;;1.50;0.50;;;;;8.37;81.73;101569.66;5122139;27;8849;-62
2022/01/28 10:24:07;;;;;;;;;1.00;0.00;;;;;8.39;81.38;101572.25;5120099;27;8845;-60
2022/01/28 10:26:35;;;;;;;;;0.50;0.50;;;;;8.78;80.78;101571.31;5121476;27;8850;-62
2022/01/28 10:29:02;;;;;;;;;0.00;0.00;;;;;9.56;78.38;101580.78;5118786;27;8941;-62
2022/01/28 10:31:30;;;;;;;;;0.00;0.00;;;;;9.97;78.06;101574.25;5116709;27;9178;-61
2022/01/28 10:33:58;;;;;;;;;0.00;0.00;;;;;10.23;77.13;101571.13;5118595;27;8850;-61
2022/01/28 10:36:26;;;;;;;;;0.00;0.00;;;;;10.54;76.36;101578.38;5120247;27;8841;-61
2022/01/28 10:38:53;;;;;;;;;0.00;0.00;;;;;10.76;76.01;101582.47;5120810;27;8857;-60
2022/01/28 10:41:23;;;;;;;;;0.00;0.00;;;;;10.40;76.46;101583.56;5118939;27;8984;-63
2022/01/28 10:43:52;;;;;;;;;0.00;0.00;;;;;10.04;77.78;101581.03;5117503;27;8879;-63
2022/01/28 10:46:20;;;;;;;;;2.00;1.00;;;;;10.13;78.16;101580.56;5118078;27;8862;-63
2022/01/28 10:48:49;;;;;;;;;0.00;0.00;;;;;9.88;77.86;101585.34;5118765;27;8849;-63
2022/01/28 10:51:17;;;;;;;;;1.00;0.75;;;;;9.52;78.93;101584.53;5119236;27;8849;-61
2022/01/28 10:54:05;;;;;;;;;0.00;0.00;;;;;9.16;80.47;101588.09;5114164;27;8846;-62
2022/01/28 10:56:33;;;;;;;;;1.00;0.75;;;;;8.97;80.77;101597.88;5121146;27;8837;-61
2022/01/28 10:59:03;;;;;;;;;0.75;0.00;;;;;8.70;80.60;101596.50;5120964;27;9527;-59
2022/01/28 11:01:31;;;;;;;;;0.00;0.00;;;;;8.47;80.99;101597.53;5119736;27;9135;-62
2022/01/28 11:03:59;;;;;;;;;0.00;0.00;;;;;8.34;81.70;101598.13;5119612;27;8972;-61
2022/01/28 11:06:27;;;;;;;;;0.75;0.75;;;;;8.23;82.18;101588.00;5116743;27;8854;-60
2022/01/28 11:08:55;;;;;;;;;0.25;0.25;;;;;8.06;81.88;101592.28;5117709;27;8863;-62
2022/01/28 11:11:23;;;;;;;;;1.00;0.25;;;;;7.91;81.97;101601.75;5117126;27;8877;-60
2022/01/28 11:13:51;;;;;;;;;1.00;1.00;;;;;7.81;82.17;101596.88;5117763;27;8841;-64
2022/01/28 11:16:18;;;;;;;;;0.25;0.00;;;;;7.73;82.18;101591.91;5119513;27;8874;-60
2022/01/28 11:18:46;;;;;;;;;0.25;0.25;;;;;7.69;82.21;101595.59;5118370;27;8858;-60
2022/01/28 11:21:16;;;;;;;;;0.00;0.00;;;;;7.62;82.39;101589.75;5117871;27;8860;-62
2022/01/28 11:23:45;;;;;;;;;0.00;0.00;;;;;7.55;82.60;101590.94;5117397;27;8969;-60
2022/01/28 11:26:13;;;;;;;;;0.50;0.00;;;;;7.50;82.54;101588.47;5121157;27;8842;-60
2022/01/28 11:28:41;;;;;;;;;1.50;1.50;;;;;7.46;82.50;101607.22;5117648;27;9232;-60
2022/01/28 11:31:08;;;;;;;;;1.00;1.00;;;;;7.47;82.26;101607.16;5117582;27;9000;-62
2022/01/28 11:33:36;;;;;;;;;0.00;0.00;;;;;7.47;82.46;101603.63;5117172;27;9500;-63
2022/01/28 11:36:04;;;;;;;;;0.00;0.00;;;;;7.49;82.06;101607.13;5115088;27;8968;-62
2022/01/28 11:38:32;;;;;;;;;0.25;0.00;;;;;7.52;82.22;101597.25;5117078;27;8841;-60
2022/01/28 11:41:02;;;;;;;;;0.25;0.00;;;;;7.59;82.47;101587.25;5119107;27;9094;-62
2022/01/28 11:43:29;;;;;;;;;0.00;0.00;;;;;7.59;81.63;101593.38;5119369;27;8842;-63
2022/01/28 11:45:57;;;;;;;;;0.50;0.00;;;;;7.53;81.96;101593.66;5118880;27;8850;-60
2022/01/28 11:48:25;;;;;;;;;0.00;0.00;;;;;7.47;81.91;101595.69;5114785;27;8853;-61
2022/01/28 11:50:53;;;;;;;;;0.00;0.00;;;;;7.41;82.18;101603.88;5113235;27;8860;-62
2022/01/28 11:53:21;;;;;;;;;0.00;0.00;;;;;7.34;82.02;101597.13;5120632;27;9145;-60
2022/01/28 11:55:49;;;;;;;;;1.00;0.00;;;;;7.34;81.80;101597.97;5114604;27;9617;-60
2022/01/28 11:58:17;;;;;;;;;0.25;0.25;;;;;7.87;80.49;101584.25;5119716;27;8861;-60
2022/01/28 12:00:44;;;;;;;;;0.00;0.00;;;;;8.19;79.39;101581.09;5116378;27;8846;-60
2022/01/28 12:03:17;;;;;;;;;2.00;1.50;;;;;8.21;80.04;101589.00;5117474;27;9190;-61
2022/01/28 12:05:45;;;;;;;;;2.00;1.00;;;;;8.16;79.64;101583.00;5116660;27;9102;-61
2022/01/28 12:08:13;;;;;;;;;0.00;0.00;;;;;8.44;79.39;101572.94;5115161;27;9008;-61
2022/01/28 12:10:43;;;;;;;;;1.00;1.00;;;;;9.04;77.82;101557.66;5119290;27;8843;-60
2022/01/28 12:13:13;;;;;;;;;1.00;0.50;;;;;9.69;76.80;101560.63;5119605;27;9176;-61
2022/01/28 12:15:40;;;;;;;;;0.00;0.00;;;;;9.79;76.47;101556.56;5121396;27;9031;-61
2022/01/28 12:18:08;;;;;;;;;0.00;0.00;;;;;9.71;76.94;101558.75;5119954;27;8844;-60
2022/01/28 12:20:56;;;;;;;;;1.50;1.50;;;;;9.48;76.83;101559.03;5117144;27;8857;-61
2022/01/28 12:23:24;;;;;;;;;0.00;0.00;;;;;9.18;77.22;101560.53;5118786;27;8837;-60
2022/01/28 12:25:52;;;;;;;;;1.50;1.50;;;;;8.93;78.07;101559.09;5118479;27;8837;-60
2022/01/28 12:28:20;;;;;;;;;1.75;1.75;;;;;8.69;77.98;101561.13;5121886;27;8866;-60
2022/01/28 12:30:47;;;;;;;;;0.50;0.00;;;;;8.51;78.46;101553.13;5116354;27;8841;-59
2022/01/28 12:33:15;;;;;;;;;0.00;0.00;;;;;8.42;78.48;101546.44;5119686;27;9221;-62
2022/01/28 12:35:43;;;;;;;;;0.50;0.00;;;;;8.54;78.29;101551.19;5117613;27;9215;-61
2022/01/28 12:38:11;;;;;;;;;0.00;0.00;;;;;8.71;77.61;101547.75;5116152;27;8975;-62
2022/01/28 12:40:46;;;;;;;;;0.75;0.00;;;;;8.65;78.27;101556.88;5118456;27;9118;-60